To NAV CANADA Home Page Login to a new session Search on AWWS site Feedback and Comments Disclaimer Vers la page française équivalente Tips FAQ What's new on the site To the Forecasts and Observations / NOTAM section To "File a Flight Plan" website Publications and other links Update of the User's profile FIC Telephone Numbers My Weather Data Folder Route Weather Data Regional Weather Data Local Weather Data To the Forecasts and Observations / NOTAM section
Request Generated 10/18/2017 at 03:54:00 UTC . Weather information available at that time is displayed.

METAR/TAF

LYNN LAKE/MB    (show WxCam)

METAR CYYL 180300Z AUTO 11017KT 9SM -RA OVC005 01/01 A2924 RMK PRESFR
SLP924=
METAR CYYL 180200Z AUTO 11013G21KT 9SM -RA OVC005 01/01 A2930 RMK
SLP945=
SPECI CYYL 180124Z AUTO 11014G19KT 6SM -RA BR OVC005 01/01 A2934 RMK
SLP958=
SPECI CYYL 180101Z AUTO 10014G20KT 5SM -RA BR OVC005 01/01 A2936 RMK
SLP963=
METAR CYYL 180100Z AUTO 11013G20KT 5SM -RA BR OVC003 01/01 A2936 RMK
PRESFR SLP963=

TAF CYYL 180038Z 1801/1813 11012G22KT 6SM -RA BR SCT004 OVC007 TEMPO
1801/1810 2SM -RA BR OVC004
FM181000 05012KT 5SM -RASN OVC006 TEMPO 1810/1813 1SM -SN OVC003
RMK FCST BASED ON AUTO OBS. NXT FCST BY 180700Z=
Your time UTC time
Weather data provided by Environment Canada and NAV CANADA